Terminal Aerodrome Forecast
Issued by NWS

Home | Current Version | Previous Version | Text Only | Print | Product List | Glossary On
Versions: 1 2 3 4 5 6 7 8 9 10 11 12 13 14 15
000
FTUS46 KMTR 302321
TAFSNS
TAF
KSNS 302321Z 3100/3124 26017G27KT P6SM SKC
     FM310300 29014G20KT P6SM SKC
     FM310700 32007KT P6SM FEW015
     FM311700 29012G18KT P6SM SKC
     FM312000 29017G25KT P6SM SKC=

USA.gov is the U.S. government's official web portal to all federal, state and local government web resources and services.